sensor_id;sensor_type;location;lat;lon;timestamp;pressure;altitude;pressure_sealevel;temperature;humidity
53089;BME280;38968;47.696;17.540;2023-04-21T00:00:39;10031340.0;;;13.64;59.46875
53089;BME280;38968;47.696;17.540;2023-04-21T00:05:38;10030550.0;;;13.62;59.25879
53089;BME280;38968;47.696;17.540;2023-04-21T00:10:38;10030830.0;;;13.58;59.10254
53089;BME280;38968;47.696;17.540;2023-04-21T00:15:38;10030750.0;;;13.56;59.44531
53089;BME280;38968;47.696;17.540;2023-04-21T00:20:38;10030330.0;;;13.47;59.84961
53089;BME280;38968;47.696;17.540;2023-04-21T00:25:38;10030940.0;;;13.49;60.09375
53089;BME280;38968;47.696;17.540;2023-04-21T00:30:38;10030520.0;;;13.42;60.37305
53089;BME280;38968;47.696;17.540;2023-04-21T00:35:38;10030250.0;;;13.44;60.38672
53089;BME280;38968;47.696;17.540;2023-04-21T00:40:38;10030190.0;;;13.32;61.20117
53089;BME280;38968;47.696;17.540;2023-04-21T00:45:38;10030080.0;;;12.98;62.20117
53089;BME280;38968;47.696;17.540;2023-04-21T00:50:38;10031150.0;;;12.9;63.00781
53089;BME280;38968;47.696;17.540;2023-04-21T00:55:38;10030220.0;;;13.17;62.13672
53089;BME280;38968;47.696;17.540;2023-04-21T01:00:38;10030210.0;;;12.8;63.03809
53089;BME280;38968;47.696;17.540;2023-04-21T01:05:38;10030190.0;;;12.91;62.6748
53089;BME280;38968;47.696;17.540;2023-04-21T01:10:38;10029960.0;;;12.75;62.77832
53089;BME280;38968;47.696;17.540;2023-04-21T01:15:38;10030520.0;;;12.55;63.86621
53089;BME280;38968;47.696;17.540;2023-04-21T01:20:38;10029830.0;;;12.51;64.09082
53089;BME280;38968;47.696;17.540;2023-04-21T01:25:38;10029830.0;;;12.96;62.24414
53089;BME280;38968;47.696;17.540;2023-04-21T01:30:38;10029740.0;;;12.96;61.41504
53089;BME280;38968;47.696;17.540;2023-04-21T01:35:38;10029300.0;;;12.96;61.03516
53089;BME280;38968;47.696;17.540;2023-04-21T01:40:39;10028950.0;;;12.99;61.07324
53089;BME280;38968;47.696;17.540;2023-04-21T01:45:38;10029200.0;;;13.02;60.96191
53089;BME280;38968;47.696;17.540;2023-04-21T01:50:38;10029460.0;;;13.02;60.99707
53089;BME280;38968;47.696;17.540;2023-04-21T01:55:38;10029950.0;;;12.78;61.20605
53089;BME280;38968;47.696;17.540;2023-04-21T02:00:38;10029160.0;;;12.83;60.77539
53089;BME280;38968;47.696;17.540;2023-04-21T02:05:38;10030040.0;;;12.77;61.04395
53089;BME280;38968;47.696;17.540;2023-04-21T02:10:38;10029620.0;;;12.7;60.93066
53089;BME280;38968;47.696;17.540;2023-04-21T02:15:38;10029380.0;;;12.58;61.18945
53089;BME280;38968;47.696;17.540;2023-04-21T02:20:38;10029640.0;;;12.6;61.92871
53089;BME280;38968;47.696;17.540;2023-04-21T02:25:38;10029130.0;;;12.5;61.71875
53089;BME280;38968;47.696;17.540;2023-04-21T02:30:38;10028700.0;;;12.48;62.11816
53089;BME280;38968;47.696;17.540;2023-04-21T02:35:38;10028880.0;;;12.43;61.7207
53089;BME280;38968;47.696;17.540;2023-04-21T02:40:38;10029990.0;;;12.57;61.52246
53089;BME280;38968;47.696;17.540;2023-04-21T02:45:38;10029330.0;;;12.38;60.66699
53089;BME280;38968;47.696;17.540;2023-04-21T02:50:38;10029260.0;;;12.31;61.62305
53089;BME280;38968;47.696;17.540;2023-04-21T02:55:38;10029800.0;;;12.23;61.49805
53089;BME280;38968;47.696;17.540;2023-04-21T03:00:38;10029780.0;;;11.8;63.29688
53089;BME280;38968;47.696;17.540;2023-04-21T03:05:38;10030120.0;;;11.85;62.4541
53089;BME280;38968;47.696;17.540;2023-04-21T03:10:38;10030000.0;;;12.08;62.7627
53089;BME280;38968;47.696;17.540;2023-04-21T03:15:38;10029580.0;;;11.94;62.46777
53089;BME280;38968;47.696;17.540;2023-04-21T03:20:38;10030250.0;;;12.09;61.9834
53089;BME280;38968;47.696;17.540;2023-04-21T03:25:38;10029470.0;;;12.08;62.30273
53089;BME280;38968;47.696;17.540;2023-04-21T03:30:38;10030360.0;;;11.96;62.57227
53089;BME280;38968;47.696;17.540;2023-04-21T03:35:38;10030300.0;;;11.86;63.22559
53089;BME280;38968;47.696;17.540;2023-04-21T03:40:38;10030330.0;;;12.16;62.94629
53089;BME280;38968;47.696;17.540;2023-04-21T03:45:38;10029390.0;;;12.07;63.29004
53089;BME280;38968;47.696;17.540;2023-04-21T03:50:38;10030650.0;;;12.32;62.78516
53089;BME280;38968;47.696;17.540;2023-04-21T03:55:38;10030820.0;;;12.37;62.26367
53089;BME280;38968;47.696;17.540;2023-04-21T04:00:38;10030980.0;;;12.46;61.06836
53089;BME280;38968;47.696;17.540;2023-04-21T04:05:39;10031910.0;;;12.16;61.77441
53089;BME280;38968;47.696;17.540;2023-04-21T04:10:38;10032430.0;;;12.17;62.62695
53089;BME280;38968;47.696;17.540;2023-04-21T04:15:38;10031610.0;;;12.34;62.63965
53089;BME280;38968;47.696;17.540;2023-04-21T04:20:38;10032670.0;;;12.29;63.12793
53089;BME280;38968;47.696;17.540;2023-04-21T04:25:38;10033170.0;;;12.39;63.1748
53089;BME280;38968;47.696;17.540;2023-04-21T04:30:38;10032710.0;;;12.56;62.93457
53089;BME280;38968;47.696;17.540;2023-04-21T04:35:38;10033990.0;;;12.25;64.51172
53089;BME280;38968;47.696;17.540;2023-04-21T04:40:38;10034250.0;;;12.25;64.85645
53089;BME280;38968;47.696;17.540;2023-04-21T04:45:38;10034170.0;;;12.69;64.5752
53089;BME280;38968;47.696;17.540;2023-04-21T04:50:38;10034580.0;;;12.82;63.97363
53089;BME280;38968;47.696;17.540;2023-04-21T04:55:38;10034850.0;;;12.76;63.67871
53089;BME280;38968;47.696;17.540;2023-04-21T05:00:38;10035240.0;;;13.02;63.69141
53089;BME280;38968;47.696;17.540;2023-04-21T05:05:38;10035730.0;;;13.17;62.83887
53089;BME280;38968;47.696;17.540;2023-04-21T05:10:38;10036140.0;;;13.32;62.85938
53089;BME280;38968;47.696;17.540;2023-04-21T05:15:38;10035950.0;;;13.4;62.90625
53089;BME280;38968;47.696;17.540;2023-04-21T05:20:41;10036440.0;;;13.55;62.4668
53089;BME280;38968;47.696;17.540;2023-04-21T05:25:38;10036570.0;;;13.73;62.25
53089;BME280;38968;47.696;17.540;2023-04-21T05:30:38;10036720.0;;;13.85;61.9209
53089;BME280;38968;47.696;17.540;2023-04-21T05:35:38;10037470.0;;;14.03;61.86523
53089;BME280;38968;47.696;17.540;2023-04-21T05:40:38;10037340.0;;;14.2;61.02246
53089;BME280;38968;47.696;17.540;2023-04-21T05:45:38;10037010.0;;;14.44;61.02148
53089;BME280;38968;47.696;17.540;2023-04-21T05:50:38;10037550.0;;;14.74;60.50781
53089;BME280;38968;47.696;17.540;2023-04-21T05:55:38;10037090.0;;;15.14;60.38965
53089;BME280;38968;47.696;17.540;2023-04-21T06:00:38;10037180.0;;;15.72;58.86816
53089;BME280;38968;47.696;17.540;2023-04-21T06:05:38;10037730.0;;;16.19;57.67676
53089;BME280;38968;47.696;17.540;2023-04-21T06:10:38;10038180.0;;;16.67;55.95898
53089;BME280;38968;47.696;17.540;2023-04-21T06:15:38;10037220.0;;;17.16;55.02051
53089;BME280;38968;47.696;17.540;2023-04-21T06:20:38;10038100.0;;;17.6;52.38086
53089;BME280;38968;47.696;17.540;2023-04-21T06:25:38;10037570.0;;;17.85;48.3916
53089;BME280;38968;47.696;17.540;2023-04-21T06:30:38;10037100.0;;;18.14;46.6543
53089;BME280;38968;47.696;17.540;2023-04-21T06:35:38;10037280.0;;;18.34;45.0127
53089;BME280;38968;47.696;17.540;2023-04-21T06:40:38;10036640.0;;;18.38;43.35156
53089;BME280;38968;47.696;17.540;2023-04-21T06:45:38;10037100.0;;;18.56;41.6582
53089;BME280;38968;47.696;17.540;2023-04-21T06:50:38;10036930.0;;;18.76;41.38184
53089;BME280;38968;47.696;17.540;2023-04-21T06:55:38;10037520.0;;;18.82;40.12012
53089;BME280;38968;47.696;17.540;2023-04-21T07:00:38;10036930.0;;;18.74;39.76074
53089;BME280;38968;47.696;17.540;2023-04-21T07:05:38;10036810.0;;;18.83;38.42969
53089;BME280;38968;47.696;17.540;2023-04-21T07:10:38;10037130.0;;;18.89;38.28223
53089;BME280;38968;47.696;17.540;2023-04-21T07:15:38;10037020.0;;;19.14;37.73828
53089;BME280;38968;47.696;17.540;2023-04-21T07:20:38;10036940.0;;;18.93;36.14551
53089;BME280;38968;47.696;17.540;2023-04-21T07:25:38;10036100.0;;;19.04;36.78906
53089;BME280;38968;47.696;17.540;2023-04-21T07:30:38;10036600.0;;;19.1;36.71191
53089;BME280;38968;47.696;17.540;2023-04-21T07:35:38;10036210.0;;;19.17;35.94141
53089;BME280;38968;47.696;17.540;2023-04-21T07:40:38;10036550.0;;;19.39;36.24121
53089;BME280;38968;47.696;17.540;2023-04-21T07:45:38;10036860.0;;;19.49;35.63672
53089;BME280;38968;47.696;17.540;2023-04-21T07:50:38;10037260.0;;;19.56;35.39648
53089;BME280;38968;47.696;17.540;2023-04-21T07:55:38;10036170.0;;;19.83;34.21387
53089;BME280;38968;47.696;17.540;2023-04-21T08:00:38;10036460.0;;;19.78;34.87109
53089;BME280;38968;47.696;17.540;2023-04-21T08:05:38;10035220.0;;;20.13;34.28516
53089;BME280;38968;47.696;17.540;2023-04-21T08:10:38;10035950.0;;;19.91;32.03809
53089;BME280;38968;47.696;17.540;2023-04-21T08:15:38;10035980.0;;;20.21;32.76855
53089;BME280;38968;47.696;17.540;2023-04-21T08:20:38;10035790.0;;;20.06;31.64648
53089;BME280;38968;47.696;17.540;2023-04-21T08:25:38;10035360.0;;;20.38;31.49316
53089;BME280;38968;47.696;17.540;2023-04-21T08:30:38;10034800.0;;;20.61;31.92285
53089;BME280;38968;47.696;17.540;2023-04-21T08:35:39;10035190.0;;;20.71;31.35059
53089;BME280;38968;47.696;17.540;2023-04-21T08:40:38;10034720.0;;;20.76;31.61426
53089;BME280;38968;47.696;17.540;2023-04-21T08:45:38;10034410.0;;;20.68;31.9043
53089;BME280;38968;47.696;17.540;2023-04-21T08:50:39;10034530.0;;;21.13;31.52246
53089;BME280;38968;47.696;17.540;2023-04-21T08:55:40;10034850.0;;;21.36;31.63281
53089;BME280;38968;47.696;17.540;2023-04-21T09:00:38;10034470.0;;;21.41;31.67285
53089;BME280;38968;47.696;17.540;2023-04-21T09:05:38;10033830.0;;;21.44;31.1416
53089;BME280;38968;47.696;17.540;2023-04-21T09:10:51;10033910.0;;;21.44;31.61523
53089;BME280;38968;47.696;17.540;2023-04-21T09:15:45;10033970.0;;;21.82;30.69336
53089;BME280;38968;47.696;17.540;2023-04-21T09:20:38;10033190.0;;;21.94;31.06934
53089;BME280;38968;47.696;17.540;2023-04-21T09:25:39;10033140.0;;;22.03;31.29004
53089;BME280;38968;47.696;17.540;2023-04-21T09:30:39;10032220.0;;;22.08;30.90234
53089;BME280;38968;47.696;17.540;2023-04-21T09:35:38;10031970.0;;;22.5;30.5498
53089;BME280;38968;47.696;17.540;2023-04-21T09:40:38;10032110.0;;;22.27;29.75098
53089;BME280;38968;47.696;17.540;2023-04-21T09:45:38;10031590.0;;;22.54;29.50781
53089;BME280;38968;47.696;17.540;2023-04-21T09:50:38;10031730.0;;;22.89;29.70996
53089;BME280;38968;47.696;17.540;2023-04-21T09:55:39;10029820.0;;;22.53;29.60254
53089;BME280;38968;47.696;17.540;2023-04-21T10:00:39;10030080.0;;;22.83;29.50293
53089;BME280;38968;47.696;17.540;2023-04-21T10:05:39;10029350.0;;;23.15;30.1543
53089;BME280;38968;47.696;17.540;2023-04-21T10:10:38;10029710.0;;;23.28;29.46191
53089;BME280;38968;47.696;17.540;2023-04-21T10:15:39;10028750.0;;;23.38;28.87305
53089;BME280;38968;47.696;17.540;2023-04-21T10:20:54;10029560.0;;;23.65;28.7959
53089;BME280;38968;47.696;17.540;2023-04-21T10:25:38;10028500.0;;;23.77;28.21875
53089;BME280;38968;47.696;17.540;2023-04-21T10:30:38;10028400.0;;;23.65;29.04492
53089;BME280;38968;47.696;17.540;2023-04-21T10:36:01;10027340.0;;;23.78;29.07715
53089;BME280;38968;47.696;17.540;2023-04-21T10:40:38;10027170.0;;;24.04;29.1543
53089;BME280;38968;47.696;17.540;2023-04-21T10:45:38;10025840.0;;;24.02;28.42578
53089;BME280;38968;47.696;17.540;2023-04-21T10:50:38;10026290.0;;;24.02;27.05371
53089;BME280;38968;47.696;17.540;2023-04-21T10:55:38;10025880.0;;;24.36;27.75488
53089;BME280;38968;47.696;17.540;2023-04-21T11:00:38;10025400.0;;;24.28;28.48926
53089;BME280;38968;47.696;17.540;2023-04-21T11:05:39;10024600.0;;;23.88;28.32129
53089;BME280;38968;47.696;17.540;2023-04-21T11:10:42;10024290.0;;;24.33;28.88574
53089;BME280;38968;47.696;17.540;2023-04-21T11:15:38;10023970.0;;;24.66;26.88965
53089;BME280;38968;47.696;17.540;2023-04-21T11:20:41;10024400.0;;;24.3;27.72754
53089;BME280;38968;47.696;17.540;2023-04-21T11:25:38;10023210.0;;;24.61;27.65039
53089;BME280;38968;47.696;17.540;2023-04-21T11:30:38;10023490.0;;;25.09;27.64453
53089;BME280;38968;47.696;17.540;2023-04-21T11:35:39;10022510.0;;;25.21;26.52734
53089;BME280;38968;47.696;17.540;2023-04-21T11:40:45;10022770.0;;;25.34;27.12109
53089;BME280;38968;47.696;17.540;2023-04-21T11:45:39;10023140.0;;;25.2;25.83301
53089;BME280;38968;47.696;17.540;2023-04-21T11:50:38;10021860.0;;;25.12;26.00781
53089;BME280;38968;47.696;17.540;2023-04-21T11:55:42;10022180.0;;;25.17;26.08301
53089;BME280;38968;47.696;17.540;2023-04-21T12:00:38;10022090.0;;;25.65;25.71484
53089;BME280;38968;47.696;17.540;2023-04-21T12:05:38;10021670.0;;;25.73;26.00684
53089;BME280;38968;47.696;17.540;2023-04-21T12:10:43;10020470.0;;;26.36;24.95215
53089;BME280;38968;47.696;17.540;2023-04-21T12:15:38;10019490.0;;;26.35;24.17188
53089;BME280;38968;47.696;17.540;2023-04-21T12:20:38;10020460.0;;;26.04;25.19824
53089;BME280;38968;47.696;17.540;2023-04-21T12:25:38;10019420.0;;;26.22;26.35938
53089;BME280;38968;47.696;17.540;2023-04-21T12:30:38;10020020.0;;;25.31;26.13867
53089;BME280;38968;47.696;17.540;2023-04-21T12:35:38;10018810.0;;;25.74;26.43945
53089;BME280;38968;47.696;17.540;2023-04-21T12:40:38;10019010.0;;;25.59;25.60352
53089;BME280;38968;47.696;17.540;2023-04-21T12:45:38;10019060.0;;;25.53;26.12695
53089;BME280;38968;47.696;17.540;2023-04-21T12:50:38;10018670.0;;;25.46;24.98535
53089;BME280;38968;47.696;17.540;2023-04-21T12:55:38;10018060.0;;;25.79;25.39941
53089;BME280;38968;47.696;17.540;2023-04-21T13:00:38;10016880.0;;;26.04;25.40137
53089;BME280;38968;47.696;17.540;2023-04-21T13:05:38;10016120.0;;;26.1;24.44629
53089;BME280;38968;47.696;17.540;2023-04-21T13:10:38;10016000.0;;;27.03;24.11133
53089;BME280;38968;47.696;17.540;2023-04-21T13:15:38;10015510.0;;;26.87;23.875
53089;BME280;38968;47.696;17.540;2023-04-21T13:20:38;10015250.0;;;26.97;23.67578
53089;BME280;38968;47.696;17.540;2023-04-21T13:25:38;10014910.0;;;26.95;23.54199
53089;BME280;38968;47.696;17.540;2023-04-21T13:30:38;10014970.0;;;27.3;22.55078
53089;BME280;38968;47.696;17.540;2023-04-21T13:35:38;10013850.0;;;27.25;23.83496
53089;BME280;38968;47.696;17.540;2023-04-21T13:40:38;10013320.0;;;27.99;22.93457
53089;BME280;38968;47.696;17.540;2023-04-21T13:45:38;10013660.0;;;28.2;23.45117
53089;BME280;38968;47.696;17.540;2023-04-21T13:50:38;10013990.0;;;27.93;24.29297
53089;BME280;38968;47.696;17.540;2023-04-21T13:55:38;10012680.0;;;28.1;23.41016
53089;BME280;38968;47.696;17.540;2023-04-21T14:00:38;10012890.0;;;28.67;22.05176
53089;BME280;38968;47.696;17.540;2023-04-21T14:05:38;10011780.0;;;27.48;23.95508
53089;BME280;38968;47.696;17.540;2023-04-21T14:10:38;10011020.0;;;27.53;22.70605
53089;BME280;38968;47.696;17.540;2023-04-21T14:15:38;10010880.0;;;28.01;22.45313
53089;BME280;38968;47.696;17.540;2023-04-21T14:20:38;10010730.0;;;28.17;22.48535
53089;BME280;38968;47.696;17.540;2023-04-21T14:25:38;10009910.0;;;28.99;21.26953
53089;BME280;38968;47.696;17.540;2023-04-21T14:30:38;10009430.0;;;28.84;21.50391
53089;BME280;38968;47.696;17.540;2023-04-21T14:35:38;10009920.0;;;26.49;23.50684
53089;BME280;38968;47.696;17.540;2023-04-21T14:40:38;10009120.0;;;26.58;23.88379
53089;BME280;38968;47.696;17.540;2023-04-21T14:45:38;10008150.0;;;26.13;24.29102
53089;BME280;38968;47.696;17.540;2023-04-21T14:50:38;10009040.0;;;26.13;24.54297
53089;BME280;38968;47.696;17.540;2023-04-21T14:55:38;10007800.0;;;26.67;23.80371
53089;BME280;38968;47.696;17.540;2023-04-21T15:00:39;10007740.0;;;26.85;23.8623
53089;BME280;38968;47.696;17.540;2023-04-21T15:05:38;10007640.0;;;28.23;22.06641
53089;BME280;38968;47.696;17.540;2023-04-21T15:10:38;10005920.0;;;30.08;20.06152
53089;BME280;38968;47.696;17.540;2023-04-21T15:15:39;10006160.0;;;29.08;20.70605
53089;BME280;38968;47.696;17.540;2023-04-21T15:20:39;10005980.0;;;30.39;19.11719
53089;BME280;38968;47.696;17.540;2023-04-21T15:25:38;10006110.0;;;30.45;19.31348
53089;BME280;38968;47.696;17.540;2023-04-21T15:30:38;10006350.0;;;30.38;19.80762
53089;BME280;38968;47.696;17.540;2023-04-21T15:35:38;10006350.0;;;30.75;18.69531
53089;BME280;38968;47.696;17.540;2023-04-21T15:40:38;10006030.0;;;32.11;18.09375
53089;BME280;38968;47.696;17.540;2023-04-21T15:45:38;10006020.0;;;32.72;17.54492
53089;BME280;38968;47.696;17.540;2023-04-21T15:50:38;10006640.0;;;32.48;17.80371
53089;BME280;38968;47.696;17.540;2023-04-21T15:55:38;10005530.0;;;32.08;17.99512
53089;BME280;38968;47.696;17.540;2023-04-21T16:00:39;10005220.0;;;32.88;16.9043
53089;BME280;38968;47.696;17.540;2023-04-21T16:05:38;10005360.0;;;32.15;17.6084
53089;BME280;38968;47.696;17.540;2023-04-21T16:10:38;10005210.0;;;31.95;17.57617
53089;BME280;38968;47.696;17.540;2023-04-21T16:15:38;10004660.0;;;31.27;18.64355
53089;BME280;38968;47.696;17.540;2023-04-21T16:20:38;10004100.0;;;31.1;19.26855
53089;BME280;38968;47.696;17.540;2023-04-21T16:25:39;10003790.0;;;29.21;20.92969
53089;BME280;38968;47.696;17.540;2023-04-21T16:30:38;10004540.0;;;28.29;21.64648
53089;BME280;38968;47.696;17.540;2023-04-21T16:35:38;10003930.0;;;27.86;22.1084
53089;BME280;38968;47.696;17.540;2023-04-21T16:40:38;10003840.0;;;27.13;22.92676
53089;BME280;38968;47.696;17.540;2023-04-21T16:45:38;10003590.0;;;26.69;23.60059
53089;BME280;38968;47.696;17.540;2023-04-21T16:50:38;10003740.0;;;26.39;23.88574
53089;BME280;38968;47.696;17.540;2023-04-21T16:55:38;10003700.0;;;25.76;24.91895
53089;BME280;38968;47.696;17.540;2023-04-21T17:00:38;10004700.0;;;25.17;25.90332
53089;BME280;38968;47.696;17.540;2023-04-21T17:05:38;10004540.0;;;24.9;26.13867
53089;BME280;38968;47.696;17.540;2023-04-21T17:10:38;10004010.0;;;24.41;27.17285
53089;BME280;38968;47.696;17.540;2023-04-21T17:15:38;10004510.0;;;24.09;27.55957
53089;BME280;38968;47.696;17.540;2023-04-21T17:20:38;10005200.0;;;23.87;28.27344
53089;BME280;38968;47.696;17.540;2023-04-21T17:25:38;10005250.0;;;23.67;28.76074
53089;BME280;38968;47.696;17.540;2023-04-21T17:30:38;10005170.0;;;23.14;30.01172
53089;BME280;38968;47.696;17.540;2023-04-21T17:35:39;10004820.0;;;22.99;30.1084
53089;BME280;38968;47.696;17.540;2023-04-21T17:40:38;10004880.0;;;22.76;30.55664
53089;BME280;38968;47.696;17.540;2023-04-21T17:45:38;10004930.0;;;22.28;30.91504
53089;BME280;38968;47.696;17.540;2023-04-21T17:50:38;10004850.0;;;21.98;30.63379
53089;BME280;38968;47.696;17.540;2023-04-21T17:55:39;10005230.0;;;21.94;31.66211
53089;BME280;38968;47.696;17.540;2023-04-21T18:00:38;10006280.0;;;21.54;33.04395
53089;BME280;38968;47.696;17.540;2023-04-21T18:05:39;10005620.0;;;21.45;33.64063
53089;BME280;38968;47.696;17.540;2023-04-21T18:10:38;10005580.0;;;21.37;33.83594
53089;BME280;38968;47.696;17.540;2023-04-21T18:15:38;10006280.0;;;21.08;34.15723
53089;BME280;38968;47.696;17.540;2023-04-21T18:20:38;10007200.0;;;20.87;34.12891
53089;BME280;38968;47.696;17.540;2023-04-21T18:25:38;10006650.0;;;20.6;33.30469
53089;BME280;38968;47.696;17.540;2023-04-21T18:30:38;10007090.0;;;20.59;35.04102
53089;BME280;38968;47.696;17.540;2023-04-21T18:35:39;10007530.0;;;20.28;34.83984
53089;BME280;38968;47.696;17.540;2023-04-21T18:40:39;10007400.0;;;19.85;36.30273
53089;BME280;38968;47.696;17.540;2023-04-21T18:45:39;10008300.0;;;19.67;36.93652
53089;BME280;38968;47.696;17.540;2023-04-21T18:50:39;10008750.0;;;19.65;37.11035
53089;BME280;38968;47.696;17.540;2023-04-21T18:55:39;10008710.0;;;19.55;37.82031
53089;BME280;38968;47.696;17.540;2023-04-21T19:00:39;10008630.0;;;19.53;36.12305
53089;BME280;38968;47.696;17.540;2023-04-21T19:05:38;10008970.0;;;19.2;38.26172
53089;BME280;38968;47.696;17.540;2023-04-21T19:10:38;10009270.0;;;18.78;38.61328
53089;BME280;38968;47.696;17.540;2023-04-21T19:15:38;10008700.0;;;18.51;40.05762
53089;BME280;38968;47.696;17.540;2023-04-21T19:20:38;10009120.0;;;18.36;39.64453
53089;BME280;38968;47.696;17.540;2023-04-21T19:25:39;10009450.0;;;18.4;40.5166
53089;BME280;38968;47.696;17.540;2023-04-21T19:30:39;10008340.0;;;18.52;40.22266
53089;BME280;38968;47.696;17.540;2023-04-21T19:35:38;10009090.0;;;18.41;40.54102
53089;BME280;38968;47.696;17.540;2023-04-21T19:40:39;10008800.0;;;18.28;40.79883
53089;BME280;38968;47.696;17.540;2023-04-21T19:45:39;10008640.0;;;18.05;41.7041
53089;BME280;38968;47.696;17.540;2023-04-21T19:50:39;10009230.0;;;17.73;43.42969
53089;BME280;38968;47.696;17.540;2023-04-21T19:55:40;10008750.0;;;17.81;43.63574
53089;BME280;38968;47.696;17.540;2023-04-21T20:00:39;10009330.0;;;17.89;43.30469
53089;BME280;38968;47.696;17.540;2023-04-21T20:05:38;10009470.0;;;17.58;44.70215
53089;BME280;38968;47.696;17.540;2023-04-21T20:10:39;10009960.0;;;17.03;45.58105
53089;BME280;38968;47.696;17.540;2023-04-21T20:15:39;10010290.0;;;16.88;45.83398
53089;BME280;38968;47.696;17.540;2023-04-21T20:20:39;10009410.0;;;16.89;45.91602
53089;BME280;38968;47.696;17.540;2023-04-21T20:25:38;10010070.0;;;16.99;45.66992
53089;BME280;38968;47.696;17.540;2023-04-21T20:30:38;10009290.0;;;16.95;45.30371
53089;BME280;38968;47.696;17.540;2023-04-21T20:35:38;10009980.0;;;16.99;45.26172
53089;BME280;38968;47.696;17.540;2023-04-21T20:40:38;10010130.0;;;16.61;46.3418
53089;BME280;38968;47.696;17.540;2023-04-21T20:45:38;10009730.0;;;16.52;46.39063
53089;BME280;38968;47.696;17.540;2023-04-21T20:50:38;10009790.0;;;16.57;45.80078
53089;BME280;38968;47.696;17.540;2023-04-21T20:55:38;10010120.0;;;16.17;47.28613
53089;BME280;38968;47.696;17.540;2023-04-21T21:00:38;10011130.0;;;16.29;47.42773
53089;BME280;38968;47.696;17.540;2023-04-21T21:05:38;10011040.0;;;16.08;48.2666
53089;BME280;38968;47.696;17.540;2023-04-21T21:10:38;10011040.0;;;15.85;49.02051
53089;BME280;38968;47.696;17.540;2023-04-21T21:15:38;10011050.0;;;15.8;48.95703
53089;BME280;38968;47.696;17.540;2023-04-21T21:20:39;10011340.0;;;15.74;49.68359
53089;BME280;38968;47.696;17.540;2023-04-21T21:25:38;10011080.0;;;15.72;49.57715
53089;BME280;38968;47.696;17.540;2023-04-21T21:30:38;10011580.0;;;15.3;51.02832
53089;BME280;38968;47.696;17.540;2023-04-21T21:35:38;10010990.0;;;15.45;49.75586
53089;BME280;38968;47.696;17.540;2023-04-21T21:40:38;10011580.0;;;15.54;49.52051
53089;BME280;38968;47.696;17.540;2023-04-21T21:45:38;10012240.0;;;15.67;49.54785
53089;BME280;38968;47.696;17.540;2023-04-21T21:50:38;10011460.0;;;15.64;49.27734
53089;BME280;38968;47.696;17.540;2023-04-21T21:55:38;10012360.0;;;15.57;48.69824
53089;BME280;38968;47.696;17.540;2023-04-21T22:00:38;10012470.0;;;15.26;49.73438
53089;BME280;38968;47.696;17.540;2023-04-21T22:05:38;10013120.0;;;15.14;50.77832
53089;BME280;38968;47.696;17.540;2023-04-21T22:10:38;10013440.0;;;14.96;51.46484
53089;BME280;38968;47.696;17.540;2023-04-21T22:15:38;10013840.0;;;14.83;50.99609
53089;BME280;38968;47.696;17.540;2023-04-21T22:20:38;10013820.0;;;14.89;50.49316
53089;BME280;38968;47.696;17.540;2023-04-21T22:25:38;10013320.0;;;14.8;49.76367
53089;BME280;38968;47.696;17.540;2023-04-21T22:30:38;10012660.0;;;14.66;50.40918
53089;BME280;38968;47.696;17.540;2023-04-21T22:35:38;10012450.0;;;14.78;50.43359
53089;BME280;38968;47.696;17.540;2023-04-21T22:40:38;10013070.0;;;14.77;50.37402
53089;BME280;38968;47.696;17.540;2023-04-21T22:45:38;10012640.0;;;14.4;51.62988
53089;BME280;38968;47.696;17.540;2023-04-21T22:50:38;10012590.0;;;14.29;52.44043
53089;BME280;38968;47.696;17.540;2023-04-21T22:55:38;10012610.0;;;14.54;51.55371
53089;BME280;38968;47.696;17.540;2023-04-21T23:00:38;10013320.0;;;14.21;52.22168
53089;BME280;38968;47.696;17.540;2023-04-21T23:05:38;10013590.0;;;14.16;51.23145
53089;BME280;38968;47.696;17.540;2023-04-21T23:10:38;10013770.0;;;13.83;52.21191
53089;BME280;38968;47.696;17.540;2023-04-21T23:15:38;10013420.0;;;13.84;52.43262
53089;BME280;38968;47.696;17.540;2023-04-21T23:20:38;10013180.0;;;13.78;52.40234
53089;BME280;38968;47.696;17.540;2023-04-21T23:25:38;10012990.0;;;13.83;51.08887
53089;BME280;38968;47.696;17.540;2023-04-21T23:30:38;10013490.0;;;13.9;50.66992
53089;BME280;38968;47.696;17.540;2023-04-21T23:35:38;10013740.0;;;13.95;50.38574
53089;BME280;38968;47.696;17.540;2023-04-21T23:40:38;10013200.0;;;14.01;50.86719
53089;BME280;38968;47.696;17.540;2023-04-21T23:45:38;10012100.0;;;14.18;49.9834
53089;BME280;38968;47.696;17.540;2023-04-21T23:50:38;10012730.0;;;13.78;50.59766
53089;BME280;38968;47.696;17.540;2023-04-21T23:55:38;10013770.0;;;13.83;51.5752
